createdAt,value
2022-11-15T00:01:20.582Z,7.84
2022-11-15T00:06:42.376Z,7.82
2022-11-15T00:12:05.756Z,7.97
2022-11-15T00:17:27.736Z,7.99
2022-11-15T00:22:49.559Z,8.07
2022-11-15T00:28:12.639Z,8.14
2022-11-15T00:33:34.956Z,8.17
2022-11-15T00:38:57.198Z,8.22
2022-11-15T00:44:20.334Z,8.26
2022-11-15T00:49:42.860Z,8.33
2022-11-15T00:55:05.290Z,8.34
2022-11-15T01:00:28.566Z,8.39
2022-11-15T01:05:50.543Z,8.50
2022-11-15T01:11:14.046Z,8.52
2022-11-15T01:16:37.449Z,8.60
2022-11-15T01:21:59.138Z,8.65
2022-11-15T01:27:20.946Z,8.72
2022-11-15T01:32:44.163Z,8.84
2022-11-15T01:38:05.926Z,8.94
2022-11-15T01:43:29.794Z,9.08
2022-11-15T01:48:55.279Z,9.17
2022-11-15T01:54:21.469Z,9.31
2022-11-15T01:59:46.757Z,9.37
2022-11-15T02:05:10.788Z,9.47
2022-11-15T02:10:32.931Z,9.56
2022-11-15T02:16:12.355Z,9.58
2022-11-15T02:21:42.379Z,9.68
2022-11-15T02:27:29.548Z,9.73
2022-11-15T02:32:56.801Z,9.81
2022-11-15T02:38:24.742Z,9.83
2022-11-15T02:43:59.907Z,9.87
2022-11-15T02:49:25.238Z,9.92
2022-11-15T02:54:56.275Z,9.95
2022-11-15T03:00:20.401Z,10.00
2022-11-15T03:05:54.325Z,10.05
2022-11-15T03:11:19.392Z,10.09
2022-11-15T03:16:47.346Z,10.09
2022-11-15T03:22:13.714Z,10.15
2022-11-15T03:27:40.431Z,10.19
2022-11-15T03:33:06.027Z,10.21
2022-11-15T03:38:33.027Z,10.21
2022-11-15T03:44:01.624Z,10.17
2022-11-15T03:49:29.517Z,10.14
2022-11-15T03:54:58.392Z,10.13
2022-11-15T04:00:20.527Z,10.13
2022-11-15T04:05:42.460Z,10.11
2022-11-15T04:11:05.555Z,10.15
2022-11-15T04:16:27.271Z,10.16
2022-11-15T04:22:06.350Z,10.13
2022-11-15T04:27:29.703Z,10.15
2022-11-15T04:32:51.586Z,10.16
2022-11-15T04:38:13.756Z,10.22
2022-11-15T04:43:37.230Z,10.26
2022-11-15T04:48:59.572Z,10.27
2022-11-15T04:54:21.176Z,10.33
2022-11-15T04:59:44.327Z,10.37
2022-11-15T05:05:06.845Z,10.38
2022-11-15T05:10:28.755Z,10.39
2022-11-15T05:15:51.844Z,10.39
2022-11-15T05:21:16.234Z,10.38
2022-11-15T05:26:38.234Z,10.39
2022-11-15T05:32:01.802Z,10.38
2022-11-15T05:37:23.413Z,10.39
2022-11-15T05:42:46.185Z,10.40
2022-11-15T05:48:11.763Z,10.39
2022-11-15T05:53:34.415Z,10.39
2022-11-15T05:58:59.708Z,10.40
2022-11-15T06:04:23.044Z,10.41
2022-11-15T06:09:45.050Z,10.43
2022-11-15T06:15:07.497Z,10.39
2022-11-15T06:20:31.990Z,10.40
2022-11-15T06:25:54.270Z,10.42
2022-11-15T06:31:16.025Z,10.40
2022-11-15T06:36:39.482Z,10.36
2022-11-15T06:42:01.581Z,10.36
2022-11-15T06:47:23.167Z,10.38
2022-11-15T06:52:48.863Z,10.34
2022-11-15T06:58:10.506Z,10.34
2022-11-15T07:03:32.682Z,10.29
2022-11-15T07:08:56.551Z,10.29
2022-11-15T07:14:18.557Z,10.25
2022-11-15T07:19:40.331Z,10.31
2022-11-15T07:25:03.627Z,10.21
2022-11-15T07:30:26.977Z,10.25
2022-11-15T07:35:50.365Z,10.26
2022-11-15T07:41:13.620Z,10.23
2022-11-15T07:46:35.367Z,10.24
2022-11-15T07:51:57.092Z,10.22
2022-11-15T07:57:20.106Z,10.22
2022-11-15T08:02:42.426Z,10.20
2022-11-15T08:08:05.188Z,10.20
2022-11-15T08:13:29.025Z,10.15
2022-11-15T08:18:51.319Z,10.18
2022-11-15T08:24:12.987Z,10.23
2022-11-15T08:29:36.953Z,10.23
2022-11-15T08:34:59.054Z,10.32
2022-11-15T08:40:21.161Z,10.36
2022-11-15T08:45:44.579Z,10.43
2022-11-15T08:51:06.628Z,10.50
2022-11-15T08:56:28.538Z,10.57
2022-11-15T09:01:51.783Z,10.62
2022-11-15T09:07:15.416Z,10.65
2022-11-15T09:12:37.446Z,10.61
2022-11-15T09:18:01.471Z,10.61
2022-11-15T09:23:23.018Z,10.65
2022-11-15T09:28:44.684Z,10.73
2022-11-15T09:34:07.783Z,10.83
2022-11-15T09:39:29.491Z,10.94
2022-11-15T09:45:09.272Z,11.09
2022-11-15T09:50:38.472Z,11.08
2022-11-15T09:55:52.683Z,11.20
2022-11-15T10:01:00.202Z,11.20
2022-11-15T10:06:08.519Z,11.15
2022-11-15T10:17:04.438Z,11.36
2022-11-15T10:22:23.236Z,11.31
2022-11-15T10:27:27.106Z,11.46
2022-11-15T10:32:31.938Z,11.61
2022-11-15T10:37:37.028Z,11.74
2022-11-15T10:42:40.793Z,11.96
2022-11-15T10:47:44.548Z,12.10
2022-11-15T10:52:49.768Z,12.15
2022-11-15T10:57:56.344Z,12.40
2022-11-15T11:03:04.750Z,12.66
2022-11-15T11:08:22.399Z,12.47
2022-11-15T11:13:28.167Z,12.49
2022-11-15T11:18:37.259Z,12.59
2022-11-15T11:23:50.496Z,12.78
2022-11-15T11:29:03.687Z,13.08
2022-11-15T11:34:17.578Z,12.98
2022-11-15T11:39:33.860Z,13.36
2022-11-15T11:44:51.540Z,13.51
2022-11-15T11:50:01.371Z,13.50
2022-11-15T11:55:16.851Z,13.78
2022-11-15T12:00:22.905Z,13.97
2022-11-15T12:05:33.276Z,14.03
2022-11-15T12:10:41.359Z,14.24
2022-11-15T12:15:49.433Z,14.34
2022-11-15T12:20:58.500Z,14.35
2022-11-15T12:26:10.416Z,14.51
2022-11-15T12:31:18.977Z,14.82
2022-11-15T12:36:38.521Z,14.37
2022-11-15T12:41:45.934Z,14.17
2022-11-15T12:47:24.484Z,14.05
2022-11-15T12:52:28.199Z,13.64
2022-11-15T12:57:45.588Z,13.55
2022-11-15T13:02:49.580Z,13.47
2022-11-15T13:08:00.448Z,13.46
2022-11-15T13:13:08.571Z,13.42
2022-11-15T13:18:31.092Z,13.33
2022-11-15T13:23:34.986Z,13.23
2022-11-15T13:28:45.124Z,13.03
2022-11-15T13:33:48.955Z,13.13
2022-11-15T13:39:00.866Z,13.14
2022-11-15T13:44:20.543Z,13.03
2022-11-15T13:49:31.709Z,12.98
2022-11-15T13:54:38.872Z,12.94
2022-11-15T13:59:50.955Z,12.88
2022-11-15T14:04:57.569Z,12.81
2022-11-15T14:10:19.760Z,12.86
2022-11-15T14:15:31.959Z,12.77
2022-11-15T14:20:39.093Z,12.73
2022-11-15T14:25:54.856Z,12.77
2022-11-15T14:31:01.501Z,12.76
2022-11-15T14:36:07.730Z,12.74
2022-11-15T14:41:20.652Z,12.68
2022-11-15T14:46:25.779Z,12.71
2022-11-15T14:51:29.535Z,12.70
2022-11-15T14:56:33.276Z,12.66
2022-11-15T15:01:38.290Z,12.57
2022-11-15T15:06:42.171Z,12.58
2022-11-15T15:11:46.765Z,12.57
2022-11-15T15:16:51.848Z,12.46
2022-11-15T15:21:55.493Z,12.42
2022-11-15T15:26:59.272Z,12.33
2022-11-15T15:32:04.945Z,12.39
2022-11-15T15:37:10.407Z,12.33
2022-11-15T15:42:14.158Z,12.29
2022-11-15T15:47:21.828Z,12.32
2022-11-15T15:52:26.077Z,12.27
2022-11-15T15:57:29.855Z,12.19
2022-11-15T16:02:39.264Z,12.13
2022-11-15T16:07:45.103Z,12.15
2022-11-15T16:12:49.130Z,11.98
2022-11-15T16:17:55.643Z,11.94
2022-11-15T16:23:02.090Z,11.91
2022-11-15T16:28:18.718Z,11.79
2022-11-15T16:33:23.929Z,11.62
2022-11-15T16:38:28.001Z,11.59
2022-11-15T16:43:31.682Z,11.40
2022-11-15T16:48:37.253Z,11.29
2022-11-15T16:53:41.256Z,11.30
2022-11-15T16:58:45.056Z,11.30
2022-11-15T17:03:50.080Z,11.27
2022-11-15T17:08:53.800Z,11.13
2022-11-15T17:13:59.271Z,11.06
2022-11-15T17:19:04.398Z,10.97
2022-11-15T17:24:08.410Z,10.95
2022-11-15T17:29:12.276Z,10.98
2022-11-15T17:34:17.326Z,10.97
2022-11-15T17:39:21.122Z,10.92
2022-11-15T17:44:24.789Z,10.95
2022-11-15T17:49:29.876Z,10.82
2022-11-15T17:54:33.586Z,10.85
2022-11-15T17:59:37.294Z,10.91
2022-11-15T18:04:42.243Z,10.84
2022-11-15T18:09:45.997Z,10.87
2022-11-15T18:14:49.682Z,10.91
2022-11-15T18:19:54.842Z,10.92
2022-11-15T18:24:58.685Z,10.90
2022-11-15T18:30:02.540Z,10.88
2022-11-15T18:35:09.273Z,10.86
2022-11-15T18:40:13.167Z,10.88
2022-11-15T18:45:21.527Z,10.84
2022-11-15T18:50:28.963Z,10.89
2022-11-15T18:55:32.743Z,10.90
2022-11-15T19:00:36.547Z,10.94
2022-11-15T19:05:41.655Z,10.93
2022-11-15T19:10:45.371Z,10.97
2022-11-15T19:15:49.148Z,10.95
2022-11-15T19:20:55.180Z,10.92
2022-11-15T19:26:00.125Z,10.97
2022-11-15T19:31:07.326Z,10.94
2022-11-15T19:36:14.750Z,10.99
2022-11-15T19:41:20.545Z,10.99
2022-11-15T19:46:25.007Z,11.04
2022-11-15T19:51:31.309Z,11.02
2022-11-15T19:56:36.161Z,10.96
2022-11-15T20:01:40.200Z,11.04
2022-11-15T20:06:45.465Z,11.06
2022-11-15T20:11:49.143Z,11.01
2022-11-15T20:16:54.594Z,11.10
2022-11-15T20:21:59.812Z,11.03
2022-11-15T20:27:03.587Z,11.12
2022-11-15T20:32:07.341Z,11.14
2022-11-15T20:37:12.426Z,11.10
2022-11-15T20:42:16.162Z,11.11
2022-11-15T20:47:19.865Z,11.19
2022-11-15T20:52:25.035Z,11.18
2022-11-15T20:57:28.799Z,11.20
2022-11-15T21:02:33.143Z,11.21
2022-11-15T21:07:38.235Z,11.19
2022-11-15T21:12:41.955Z,11.18
2022-11-15T21:17:45.715Z,11.22
2022-11-15T21:22:50.876Z,11.22
2022-11-15T21:27:54.700Z,11.25
2022-11-15T21:32:58.543Z,11.24
2022-11-15T21:38:03.607Z,11.18
2022-11-15T21:43:07.305Z,11.19
2022-11-15T21:48:11.020Z,11.22
2022-11-15T21:53:16.091Z,11.24
2022-11-15T21:58:20.278Z,11.17
2022-11-15T22:03:24.006Z,11.19
2022-11-15T22:08:29.413Z,11.20
2022-11-15T22:13:33.159Z,11.23
2022-11-15T22:18:37.672Z,11.25
2022-11-15T22:23:43.967Z,11.23
2022-11-15T22:28:48.071Z,11.23
2022-11-15T22:33:51.813Z,11.22
2022-11-15T22:38:56.877Z,11.20
2022-11-15T22:44:00.569Z,11.25
2022-11-15T22:49:04.334Z,11.26
2022-11-15T22:54:09.511Z,11.24
2022-11-15T22:59:13.267Z,11.23
2022-11-15T23:04:17.122Z,11.21
2022-11-15T23:09:22.202Z,11.23
2022-11-15T23:14:26.313Z,11.20
2022-11-15T23:19:30.044Z,11.22
2022-11-15T23:24:35.237Z,11.22
2022-11-15T23:29:52.912Z,11.22
2022-11-15T23:34:56.629Z,11.23
2022-11-15T23:40:01.771Z,11.21
2022-11-15T23:45:06.375Z,11.23
2022-11-15T23:50:10.471Z,11.24
2022-11-15T23:55:15.542Z,11.19
